createdAt,value
2023-02-11T00:00:07.276Z,26.90
2023-02-11T00:02:33.941Z,26.87
2023-02-11T00:05:03.313Z,26.87
2023-02-11T00:07:30.118Z,27.13
2023-02-11T00:09:56.377Z,26.83
2023-02-11T00:12:22.899Z,27.37
2023-02-11T00:14:49.167Z,25.20
2023-02-11T00:17:19.903Z,27.03
2023-02-11T00:19:49.205Z,26.13
2023-02-11T00:22:15.452Z,25.47
2023-02-11T00:24:41.712Z,25.63
2023-02-11T00:27:07.929Z,26.10
2023-02-11T00:29:34.185Z,25.63
2023-02-11T00:32:05.158Z,25.63
2023-02-11T00:34:31.863Z,25.07
2023-02-11T00:36:58.123Z,26.17
2023-02-11T00:39:24.451Z,25.63
2023-02-11T00:41:50.825Z,24.90
2023-02-11T00:44:17.122Z,25.07
2023-02-11T00:46:43.429Z,23.87
2023-02-11T00:49:09.806Z,25.00
2023-02-11T00:51:36.077Z,24.73
2023-02-11T00:54:02.630Z,25.70
2023-02-11T00:56:28.852Z,24.73
2023-02-11T00:58:55.093Z,25.37
2023-02-11T01:01:21.366Z,25.17
2023-02-11T01:03:47.671Z,24.50
2023-02-11T01:06:13.945Z,25.70
2023-02-11T01:08:41.444Z,24.97
2023-02-11T01:11:11.566Z,25.03
2023-02-11T01:13:37.987Z,25.27
2023-02-11T01:16:06.192Z,24.93
2023-02-11T01:18:32.471Z,24.87
2023-02-11T01:20:58.712Z,25.43
2023-02-11T01:23:25.133Z,24.97
2023-02-11T01:25:51.801Z,25.50
2023-02-11T01:28:23.957Z,24.47
2023-02-11T01:30:50.789Z,25.00
2023-02-11T01:33:17.131Z,24.53
2023-02-11T01:35:43.652Z,24.53
2023-02-11T01:38:19.530Z,25.67
2023-02-11T01:40:53.683Z,23.27
2023-02-11T01:43:20.222Z,24.27
2023-02-11T01:45:47.051Z,24.60
2023-02-11T01:48:15.268Z,23.63
2023-02-11T01:50:42.838Z,24.13
2023-02-11T01:53:39.222Z,24.00
2023-02-11T01:56:24.575Z,22.77
2023-02-11T01:58:51.447Z,23.63
2023-02-11T02:01:20.099Z,24.93
2023-02-11T02:03:48.025Z,23.97
2023-02-11T02:06:19.732Z,23.37
2023-02-11T02:08:57.412Z,24.50
2023-02-11T02:11:23.701Z,24.10
2023-02-11T02:13:49.930Z,24.30
2023-02-11T02:16:17.781Z,26.60
2023-02-11T02:18:56.115Z,23.63
2023-02-11T02:21:54.246Z,25.00
2023-02-11T02:24:20.445Z,25.73
2023-02-11T02:26:55.476Z,25.50
2023-02-11T02:29:21.745Z,26.03
2023-02-11T02:32:06.732Z,24.47
2023-02-11T02:34:44.565Z,25.67
2023-02-11T02:37:24.414Z,24.43
2023-02-11T02:39:50.775Z,25.17
2023-02-11T02:42:18.149Z,25.20
2023-02-11T02:44:50.589Z,26.73
2023-02-11T02:47:16.883Z,25.53
2023-02-11T02:49:43.110Z,25.50
2023-02-11T02:52:29.298Z,27.53
2023-02-11T02:55:08.674Z,25.00
2023-02-11T02:57:53.746Z,25.40
2023-02-11T03:00:37.192Z,25.47
2023-02-11T03:03:15.765Z,25.33
2023-02-11T03:05:50.700Z,26.23
2023-02-11T03:08:20.463Z,28.40
2023-02-11T03:10:49.258Z,26.67
2023-02-11T03:13:19.373Z,27.40
2023-02-11T03:15:48.647Z,26.90
2023-02-11T03:18:17.012Z,27.13
2023-02-11T03:20:44.525Z,26.87
2023-02-11T03:23:10.738Z,26.77
2023-02-11T03:25:48.765Z,27.33
2023-02-11T03:28:17.655Z,27.17
2023-02-11T03:30:53.371Z,27.77
2023-02-11T03:33:27.271Z,28.13
2023-02-11T03:35:55.490Z,27.73
2023-02-11T03:38:23.481Z,29.73
2023-02-11T03:40:50.212Z,28.73
2023-02-11T03:43:18.567Z,28.77
2023-02-11T03:45:45.750Z,27.90
2023-02-11T03:48:17.413Z,28.10
2023-02-11T03:50:46.078Z,27.37
2023-02-11T03:53:12.991Z,28.80
2023-02-11T03:55:40.061Z,27.90
2023-02-11T03:58:06.506Z,29.40
2023-02-11T04:00:34.328Z,28.00
2023-02-11T04:03:00.622Z,27.87
2023-02-11T04:05:26.885Z,28.13
2023-02-11T04:07:53.105Z,28.67
2023-02-11T04:10:19.408Z,29.20
2023-02-11T04:12:45.680Z,28.37
2023-02-11T04:15:12.086Z,28.53
2023-02-11T04:17:38.549Z,29.17
2023-02-11T04:20:05.013Z,29.67
2023-02-11T04:22:32.225Z,28.60
2023-02-11T04:24:58.531Z,30.17
2023-02-11T04:27:25.095Z,31.00
2023-02-11T04:29:51.495Z,29.17
2023-02-11T04:32:17.734Z,29.37
2023-02-11T04:34:44.049Z,29.37
2023-02-11T04:37:10.336Z,30.07
2023-02-11T04:39:36.608Z,31.13
2023-02-11T04:42:02.847Z,30.13
2023-02-11T04:44:30.156Z,30.30
2023-02-11T04:46:56.657Z,31.00
2023-02-11T04:49:23.111Z,29.27
2023-02-11T04:51:49.717Z,29.63
2023-02-11T04:54:16.192Z,30.53
2023-02-11T04:56:42.448Z,30.80
2023-02-11T04:59:08.811Z,29.50
2023-02-11T05:01:35.095Z,30.53
2023-02-11T05:04:01.395Z,31.23
2023-02-11T05:06:27.701Z,30.53
2023-02-11T05:08:53.998Z,33.63
2023-02-11T05:11:21.301Z,31.87
2023-02-11T05:13:47.803Z,31.67
2023-02-11T05:16:14.379Z,32.10
2023-02-11T05:18:41.633Z,30.43
2023-02-11T05:21:12.405Z,31.97
2023-02-11T05:23:39.108Z,31.73
2023-02-11T05:26:05.935Z,32.27
2023-02-11T05:28:32.698Z,33.07
2023-02-11T05:30:59.241Z,31.97
2023-02-11T05:33:25.543Z,32.00
2023-02-11T05:35:52.069Z,32.63
2023-02-11T05:38:18.513Z,32.50
2023-02-11T05:40:44.741Z,32.77
2023-02-11T05:43:10.961Z,33.47
2023-02-11T05:45:37.213Z,33.27
2023-02-11T05:48:03.472Z,32.93
2023-02-11T05:50:29.738Z,36.17
2023-02-11T05:52:55.942Z,32.40
2023-02-11T05:55:22.395Z,32.97
2023-02-11T05:57:48.661Z,33.20
2023-02-11T06:00:15.096Z,32.57
2023-02-11T06:02:41.372Z,34.47
2023-02-11T06:05:07.902Z,34.93
2023-02-11T06:07:34.174Z,34.27
2023-02-11T06:10:00.519Z,34.37
2023-02-11T06:12:27.081Z,33.43
2023-02-11T06:14:53.446Z,34.27
2023-02-11T06:17:19.651Z,34.27
2023-02-11T06:19:45.881Z,34.43
2023-02-11T06:22:12.127Z,35.13
2023-02-11T06:24:59.859Z,34.67
2023-02-11T06:27:24.859Z,34.00
2023-02-11T06:29:52.745Z,33.47
2023-02-11T06:32:39.452Z,34.10
2023-02-11T06:35:05.370Z,34.37
2023-02-11T06:37:31.607Z,34.73
2023-02-11T06:39:57.822Z,36.23
2023-02-11T06:42:24.030Z,34.30
2023-02-11T06:44:50.283Z,35.23
2023-02-11T06:47:16.500Z,37.13
2023-02-11T06:49:42.761Z,36.67
2023-02-11T06:52:09.024Z,35.47
2023-02-11T06:54:35.261Z,34.17
2023-02-11T06:57:01.560Z,35.20
2023-02-11T06:59:27.915Z,35.57
2023-02-11T07:01:54.132Z,35.30
2023-02-11T07:04:20.410Z,35.47
2023-02-11T07:06:46.674Z,35.90
2023-02-11T07:09:12.961Z,36.60
2023-02-11T07:11:39.236Z,35.30
2023-02-11T07:14:08.270Z,34.63
2023-02-11T07:16:34.941Z,35.47
2023-02-11T07:19:01.295Z,34.33
2023-02-11T07:21:28.840Z,35.97
2023-02-11T07:23:55.139Z,35.50
2023-02-11T07:26:23.126Z,36.57
2023-02-11T07:28:50.294Z,37.00
2023-02-11T07:31:18.301Z,35.40
2023-02-11T07:33:45.841Z,35.10
2023-02-11T07:36:13.051Z,34.40
2023-02-11T07:38:39.340Z,34.30
2023-02-11T07:41:10.259Z,36.80
2023-02-11T07:43:37.112Z,35.10
2023-02-11T07:46:04.386Z,34.17
2023-02-11T07:48:30.628Z,35.93
2023-02-11T07:51:04.486Z,34.80
2023-02-11T07:53:30.693Z,36.23
2023-02-11T07:55:56.928Z,34.40
2023-02-11T07:58:23.146Z,35.20
2023-02-11T08:00:49.422Z,35.53
2023-02-11T08:03:15.664Z,34.83
2023-02-11T08:05:42.205Z,33.10
2023-02-11T08:08:08.423Z,34.13
2023-02-11T08:10:34.729Z,35.30
2023-02-11T08:13:00.959Z,36.13
2023-02-11T08:15:27.262Z,34.77
2023-02-11T08:17:53.552Z,33.63
2023-02-11T08:20:19.834Z,33.93
2023-02-11T08:22:47.031Z,33.90
2023-02-11T08:25:13.310Z,32.70
2023-02-11T08:27:39.538Z,33.20
2023-02-11T08:30:06.046Z,33.23
2023-02-11T08:32:34.380Z,33.60
2023-02-11T08:35:00.701Z,31.80
2023-02-11T08:37:26.954Z,32.30
2023-02-11T08:39:53.201Z,33.73
2023-02-11T08:42:19.456Z,32.50
2023-02-11T08:44:45.700Z,32.33
2023-02-11T08:47:11.950Z,31.53
2023-02-11T08:49:38.458Z,32.23
2023-02-11T08:52:04.895Z,31.23
2023-02-11T08:54:31.211Z,31.77
2023-02-11T08:56:57.504Z,31.87
2023-02-11T08:59:23.905Z,31.80
2023-02-11T09:01:50.379Z,32.87
2023-02-11T09:04:16.618Z,31.60
2023-02-11T09:06:43.012Z,31.30
2023-02-11T09:09:11.438Z,31.70
2023-02-11T09:11:37.978Z,31.17
2023-02-11T09:14:04.944Z,30.67
2023-02-11T09:16:32.722Z,29.63
2023-02-11T09:19:01.156Z,30.80
2023-02-11T09:21:28.125Z,31.07
2023-02-11T09:23:54.419Z,28.77
2023-02-11T09:26:22.294Z,30.17
2023-02-11T09:28:49.077Z,29.60
2023-02-11T09:31:16.770Z,30.40
2023-02-11T09:33:47.745Z,29.33
2023-02-11T09:36:15.859Z,29.90
2023-02-11T09:38:42.387Z,28.83
2023-02-11T09:41:25.462Z,30.00
2023-02-11T09:43:53.038Z,30.27
2023-02-11T09:46:20.047Z,28.93
2023-02-11T09:48:47.817Z,29.17
2023-02-11T09:51:18.830Z,29.43
2023-02-11T09:53:45.103Z,28.90
2023-02-11T09:56:13.410Z,28.80
2023-02-11T09:58:43.684Z,27.50
2023-02-11T10:01:13.038Z,27.47
2023-02-11T10:03:57.431Z,30.43
2023-02-11T10:06:40.546Z,28.87
2023-02-11T10:09:16.146Z,28.20
2023-02-11T10:12:01.250Z,26.93
2023-02-11T10:14:46.277Z,28.20
2023-02-11T10:17:15.336Z,27.03
2023-02-11T10:20:03.397Z,25.63
2023-02-11T10:22:33.571Z,26.03
2023-02-11T10:25:00.347Z,26.80
2023-02-11T10:27:29.093Z,27.67
2023-02-11T10:29:59.105Z,26.73
2023-02-11T10:32:32.051Z,26.10
2023-02-11T10:35:01.814Z,25.30
2023-02-11T10:37:28.084Z,27.50
2023-02-11T10:39:54.350Z,27.20
2023-02-11T10:42:20.583Z,26.87
2023-02-11T10:44:56.708Z,26.93
2023-02-11T10:47:24.209Z,25.97
2023-02-11T10:49:50.674Z,25.57
2023-02-11T10:52:24.519Z,26.87
2023-02-11T10:54:55.913Z,25.40
2023-02-11T10:57:22.460Z,26.70
2023-02-11T10:59:49.385Z,25.07
2023-02-11T11:02:23.294Z,24.63
2023-02-11T11:04:49.655Z,25.70
2023-02-11T11:07:23.364Z,25.90
2023-02-11T11:09:51.535Z,25.93
2023-02-11T11:12:39.675Z,24.90
2023-02-11T11:15:10.093Z,24.37
2023-02-11T11:17:36.565Z,24.57
2023-02-11T11:20:23.602Z,24.67
2023-02-11T11:22:51.028Z,23.47
2023-02-11T11:25:21.750Z,25.17
2023-02-11T11:27:52.246Z,23.47
2023-02-11T11:30:19.036Z,23.73
2023-02-11T11:32:45.665Z,22.70
2023-02-11T11:35:26.227Z,22.80
2023-02-11T11:37:53.932Z,23.40
2023-02-11T11:40:26.289Z,21.07
2023-02-11T11:43:11.364Z,22.20
2023-02-11T11:45:37.584Z,22.23
2023-02-11T11:48:19.311Z,22.50
2023-02-11T11:50:49.096Z,22.40
2023-02-11T11:53:20.519Z,21.40
2023-02-11T11:56:04.947Z,20.83
2023-02-11T11:58:32.037Z,20.67
2023-02-11T12:01:16.888Z,20.23
2023-02-11T12:04:02.614Z,20.40
2023-02-11T12:06:47.662Z,19.77
2023-02-11T12:09:26.899Z,19.27
2023-02-11T12:12:07.827Z,19.80
2023-02-11T12:14:47.980Z,19.77
2023-02-11T12:17:19.732Z,18.17
2023-02-11T12:20:14.017Z,19.97
2023-02-11T12:23:03.978Z,18.60
2023-02-11T12:25:35.809Z,18.20
2023-02-11T12:28:15.390Z,18.53
2023-02-11T12:30:49.792Z,18.80
2023-02-11T12:33:37.857Z,17.60
2023-02-11T12:36:04.072Z,17.67
2023-02-11T12:38:41.701Z,17.40
2023-02-11T12:41:10.238Z,17.73
2023-02-11T12:43:45.308Z,17.33
2023-02-11T12:46:30.385Z,17.00
2023-02-11T12:48:56.656Z,15.53
2023-02-11T12:51:29.052Z,16.63
2023-02-11T12:53:58.346Z,17.67
2023-02-11T12:56:29.031Z,16.47
2023-02-11T12:58:57.911Z,16.57
2023-02-11T13:01:29.404Z,16.43
2023-02-11T13:04:15.360Z,17.33
2023-02-11T13:06:44.622Z,17.00
2023-02-11T13:09:18.993Z,16.03
2023-02-11T13:11:51.793Z,15.93
2023-02-11T13:14:23.590Z,15.73
2023-02-11T13:16:50.735Z,16.50
2023-02-11T13:19:22.138Z,16.67
2023-02-11T13:21:55.967Z,16.43
2023-02-11T13:24:25.713Z,16.17
2023-02-11T13:26:57.727Z,15.17
2023-02-11T13:29:24.057Z,15.47
2023-02-11T13:31:54.957Z,16.00
2023-02-11T13:34:47.739Z,16.10
2023-02-11T13:37:26.496Z,15.20
2023-02-11T13:40:11.480Z,16.50
2023-02-11T13:42:49.545Z,15.90
2023-02-11T13:45:28.268Z,14.60
2023-02-11T13:47:58.340Z,15.57
2023-02-11T13:50:25.295Z,15.63
2023-02-11T13:52:58.034Z,14.63
2023-02-11T13:55:24.859Z,15.33
2023-02-11T13:58:17.327Z,16.23
2023-02-11T14:00:47.044Z,14.60
2023-02-11T14:03:32.189Z,15.07
2023-02-11T14:06:29.461Z,14.90
2023-02-11T14:09:14.050Z,15.27
2023-02-11T14:11:40.803Z,15.27
2023-02-11T14:14:13.423Z,15.10
2023-02-11T14:16:58.164Z,14.37
2023-02-11T14:19:30.526Z,15.13
2023-02-11T14:22:02.337Z,14.20
2023-02-11T14:24:28.563Z,14.70
2023-02-11T14:26:59.088Z,14.87
2023-02-11T14:29:34.582Z,14.17
2023-02-11T14:32:19.374Z,13.60
2023-02-11T14:34:59.473Z,13.67
2023-02-11T14:37:50.358Z,14.07
2023-02-11T14:40:34.580Z,13.27
2023-02-11T14:43:06.197Z,12.70
2023-02-11T14:45:35.326Z,13.13
2023-02-11T14:48:02.698Z,13.00
2023-02-11T14:50:33.590Z,11.97
2023-02-11T14:53:01.331Z,13.13
2023-02-11T14:55:34.860Z,12.93
2023-02-11T14:58:14.662Z,12.97
2023-02-11T15:00:52.348Z,11.70
2023-02-11T15:03:24.919Z,12.17
2023-02-11T15:06:14.449Z,12.23
2023-02-11T15:08:43.590Z,11.67
2023-02-11T15:11:11.948Z,11.30
2023-02-11T15:13:38.476Z,11.97
2023-02-11T15:16:06.573Z,11.70
2023-02-11T15:18:35.398Z,11.47
2023-02-11T15:21:01.693Z,11.20
2023-02-11T15:23:29.665Z,11.60
2023-02-11T15:25:56.500Z,11.57
2023-02-11T15:28:24.449Z,12.00
2023-02-11T15:31:17.370Z,11.00
2023-02-11T15:33:43.730Z,11.07
2023-02-11T15:36:11.309Z,9.93
2023-02-11T15:38:37.543Z,9.63
2023-02-11T15:41:07.303Z,9.90
2023-02-11T15:43:51.011Z,9.97
2023-02-11T15:46:19.146Z,10.53
2023-02-11T15:48:47.422Z,9.80
2023-02-11T15:51:21.689Z,9.17
2023-02-11T15:53:49.528Z,9.67
2023-02-11T15:56:18.903Z,9.50
2023-02-11T15:58:47.473Z,10.00
2023-02-11T16:01:14.120Z,9.33
2023-02-11T16:03:41.061Z,10.00
2023-02-11T16:06:21.495Z,9.27
2023-02-11T16:08:57.764Z,9.17
2023-02-11T16:11:27.055Z,9.40
2023-02-11T16:13:53.390Z,8.90
2023-02-11T16:16:21.634Z,9.17
2023-02-11T16:19:03.331Z,9.47
2023-02-11T16:21:36.191Z,8.87
2023-02-11T16:24:02.619Z,8.53
2023-02-11T16:26:31.098Z,9.23
2023-02-11T16:29:09.743Z,9.13
2023-02-11T16:31:37.280Z,7.97
2023-02-11T16:34:06.084Z,8.13
2023-02-11T16:36:32.297Z,8.50
2023-02-11T16:38:58.529Z,8.07
2023-02-11T16:41:24.759Z,7.67
2023-02-11T16:43:51.012Z,8.17
2023-02-11T16:46:17.405Z,8.77
2023-02-11T16:48:43.938Z,7.70
2023-02-11T16:51:11.426Z,7.70
2023-02-11T16:53:37.660Z,8.47
2023-02-11T16:56:04.321Z,8.63
2023-02-11T16:58:30.722Z,8.67
2023-02-11T17:00:57.353Z,8.30
2023-02-11T17:03:27.482Z,9.13
2023-02-11T17:05:56.141Z,8.00
2023-02-11T17:08:22.486Z,7.97
2023-02-11T17:10:48.936Z,8.83
2023-02-11T17:13:15.320Z,7.70
2023-02-11T17:15:41.626Z,8.00
2023-02-11T17:18:09.109Z,8.00
2023-02-11T17:20:35.614Z,8.33
2023-02-11T17:23:01.850Z,7.40
2023-02-11T17:25:28.093Z,8.27
2023-02-11T17:27:54.328Z,7.13
2023-02-11T17:30:20.762Z,7.07
2023-02-11T17:32:47.355Z,7.97
2023-02-11T17:35:13.613Z,7.93
2023-02-11T17:37:40.138Z,7.63
2023-02-11T17:40:07.886Z,6.93
2023-02-11T17:42:34.142Z,7.83
2023-02-11T17:45:00.367Z,7.77
2023-02-11T17:47:26.621Z,7.87
2023-02-11T17:49:52.864Z,7.73
2023-02-11T17:52:19.436Z,7.90
2023-02-11T17:54:45.880Z,7.30
2023-02-11T17:57:12.722Z,7.90
2023-02-11T17:59:39.509Z,6.47
2023-02-11T18:02:05.750Z,6.87
2023-02-11T18:04:32.410Z,6.03
2023-02-11T18:06:58.767Z,6.17
2023-02-11T18:09:25.939Z,6.03
2023-02-11T18:11:52.645Z,6.20
2023-02-11T18:14:20.102Z,5.90
2023-02-11T18:16:48.962Z,6.17
2023-02-11T18:19:15.238Z,6.27
2023-02-11T18:21:41.599Z,6.43
2023-02-11T18:24:08.155Z,6.57
2023-02-11T18:26:34.769Z,6.57
2023-02-11T18:29:01.137Z,5.93
2023-02-11T18:31:27.775Z,6.07
2023-02-11T18:33:54.087Z,6.40
2023-02-11T18:36:21.021Z,6.53
2023-02-11T18:38:47.308Z,5.83
2023-02-11T18:41:13.922Z,6.43
2023-02-11T18:43:43.099Z,6.17
2023-02-11T18:46:11.091Z,6.77
2023-02-11T18:48:37.964Z,6.63
2023-02-11T18:51:09.954Z,6.73
2023-02-11T18:53:36.400Z,6.17
2023-02-11T18:56:06.043Z,6.63
2023-02-11T18:58:32.265Z,6.27
2023-02-11T19:00:58.610Z,6.63
2023-02-11T19:03:24.940Z,7.03
2023-02-11T19:05:51.416Z,6.20
2023-02-11T19:08:17.838Z,6.93
2023-02-11T19:10:46.037Z,7.00
2023-02-11T19:13:15.771Z,6.60
2023-02-11T19:15:43.088Z,7.20
2023-02-11T19:18:09.456Z,7.07
2023-02-11T19:20:38.274Z,6.70
2023-02-11T19:23:04.507Z,7.20
2023-02-11T19:25:30.775Z,7.10
2023-02-11T19:27:57.082Z,7.13
2023-02-11T19:30:23.398Z,6.93
2023-02-11T19:32:52.460Z,7.73
2023-02-11T19:35:19.480Z,7.00
2023-02-11T19:37:49.881Z,7.00
2023-02-11T19:40:16.659Z,7.10
2023-02-11T19:42:43.142Z,6.33
2023-02-11T19:45:09.542Z,6.80
2023-02-11T19:47:36.938Z,7.30
2023-02-11T19:50:04.078Z,6.60
2023-02-11T19:52:32.612Z,6.50
2023-02-11T19:54:59.331Z,6.73
2023-02-11T19:57:25.751Z,6.43
2023-02-11T19:59:54.724Z,6.33
2023-02-11T20:02:20.984Z,6.43
2023-02-11T20:04:47.266Z,6.77
2023-02-11T20:07:14.134Z,6.80
2023-02-11T20:09:42.415Z,6.50
2023-02-11T20:12:08.838Z,6.60
2023-02-11T20:14:35.126Z,6.10
2023-02-11T20:17:01.343Z,6.80
2023-02-11T20:19:27.941Z,6.90
2023-02-11T20:21:56.146Z,5.83
2023-02-11T20:24:23.429Z,5.67
2023-02-11T20:26:49.757Z,6.20
2023-02-11T20:29:17.042Z,6.07
2023-02-11T20:31:43.540Z,6.17
2023-02-11T20:34:10.064Z,6.53
2023-02-11T20:36:37.990Z,6.97
2023-02-11T20:39:05.972Z,6.17
2023-02-11T20:41:36.717Z,6.20
2023-02-11T20:44:04.560Z,5.80
2023-02-11T20:46:33.134Z,5.77
2023-02-11T20:48:59.897Z,5.77
2023-02-11T20:51:28.319Z,5.67
2023-02-11T20:53:54.618Z,6.13
2023-02-11T20:56:22.182Z,5.87
2023-02-11T20:58:49.340Z,6.07
2023-02-11T21:01:20.472Z,5.67
2023-02-11T21:04:02.819Z,6.00
2023-02-11T21:06:36.643Z,5.97
2023-02-11T21:09:03.888Z,6.27
2023-02-11T21:11:31.076Z,5.47
2023-02-11T21:13:57.901Z,6.37
2023-02-11T21:16:26.829Z,5.90
2023-02-11T21:18:53.327Z,6.40
2023-02-11T21:21:19.630Z,5.93
2023-02-11T21:23:46.084Z,6.10
2023-02-11T21:26:12.386Z,5.93
2023-02-11T21:28:40.958Z,6.60
2023-02-11T21:31:07.626Z,5.90
2023-02-11T21:33:34.572Z,6.07
2023-02-11T21:36:04.551Z,6.53
2023-02-11T21:38:30.848Z,6.30
2023-02-11T21:41:02.352Z,5.73
2023-02-11T21:43:28.626Z,6.10
2023-02-11T21:45:55.086Z,6.07
2023-02-11T21:48:23.689Z,5.87
2023-02-11T21:50:50.982Z,6.20
2023-02-11T21:53:17.570Z,5.70
2023-02-11T21:55:43.838Z,5.40
2023-02-11T21:58:10.602Z,6.03
2023-02-11T22:00:37.026Z,6.30
2023-02-11T22:03:03.342Z,5.40
2023-02-11T22:05:29.564Z,6.50
2023-02-11T22:07:55.791Z,6.47
2023-02-11T22:10:22.025Z,5.90
2023-02-11T22:12:50.079Z,6.10
2023-02-11T22:15:16.389Z,5.97
2023-02-11T22:17:42.632Z,6.23
2023-02-11T22:20:10.140Z,6.33
2023-02-11T22:22:36.437Z,6.73
2023-02-11T22:25:03.997Z,6.47
2023-02-11T22:27:30.241Z,6.40
2023-02-11T22:29:56.544Z,6.67
2023-02-11T22:32:22.847Z,6.90
2023-02-11T22:34:50.895Z,6.63
2023-02-11T22:37:19.246Z,6.23
2023-02-11T22:39:45.648Z,5.70
2023-02-11T22:42:14.699Z,5.90
2023-02-11T22:44:40.953Z,6.17
2023-02-11T22:47:08.572Z,6.70
2023-02-11T22:49:36.041Z,6.00
2023-02-11T22:52:02.742Z,6.53
2023-02-11T22:54:28.990Z,6.40
2023-02-11T22:56:55.356Z,5.70
2023-02-11T22:59:21.705Z,6.43
2023-02-11T23:01:48.132Z,6.07
2023-02-11T23:04:15.604Z,6.20
2023-02-11T23:06:42.043Z,6.00
2023-02-11T23:09:09.325Z,6.30
2023-02-11T23:11:35.567Z,6.63
2023-02-11T23:14:02.337Z,5.73
2023-02-11T23:16:31.180Z,6.20
2023-02-11T23:19:01.465Z,6.37
2023-02-11T23:21:28.920Z,6.47
2023-02-11T23:23:56.817Z,6.20
2023-02-11T23:26:23.293Z,6.50
2023-02-11T23:28:49.893Z,6.20
2023-02-11T23:31:26.736Z,6.10
2023-02-11T23:33:53.470Z,5.73
2023-02-11T23:36:20.589Z,5.87
2023-02-11T23:38:47.012Z,6.00
2023-02-11T23:41:14.482Z,6.00
2023-02-11T23:43:40.999Z,5.57
2023-02-11T23:46:07.616Z,5.93
2023-02-11T23:48:35.953Z,5.80
2023-02-11T23:51:02.798Z,5.97
2023-02-11T23:53:29.099Z,5.93
2023-02-11T23:55:55.644Z,5.50
2023-02-11T23:58:22.088Z,5.13
